createdAt,value
2023-04-30T00:01:47.559Z,70.10
2023-04-30T00:04:15.407Z,70.10
2023-04-30T00:06:44.556Z,70.10
2023-04-30T00:09:12.434Z,70.10
2023-04-30T00:11:40.153Z,70.10
2023-04-30T00:14:07.847Z,70.10
2023-04-30T00:16:35.553Z,70.10
2023-04-30T00:19:03.276Z,70.10
2023-04-30T00:21:31.283Z,70.10
2023-04-30T00:24:00.595Z,70.10
2023-04-30T00:26:28.358Z,70.10
2023-04-30T00:28:56.109Z,70.10
2023-04-30T00:31:23.940Z,70.00
2023-04-30T00:33:52.277Z,70.10
2023-04-30T00:36:20.317Z,70.10
2023-04-30T00:38:48.008Z,70.10
2023-04-30T00:41:17.552Z,70.10
2023-04-30T00:43:46.777Z,70.00
2023-04-30T00:46:14.554Z,70.00
2023-04-30T00:48:42.361Z,70.00
2023-04-30T00:51:10.130Z,70.00
2023-04-30T00:53:39.138Z,70.00
2023-04-30T00:56:07.286Z,70.10
2023-04-30T00:58:36.564Z,70.00
2023-04-30T01:01:05.323Z,70.10
2023-04-30T01:03:33.212Z,70.20
2023-04-30T01:06:01.066Z,70.20
2023-04-30T01:08:30.873Z,70.10
2023-04-30T01:11:13.457Z,70.20
2023-04-30T01:13:51.430Z,70.20
2023-04-30T01:16:24.290Z,70.90
2023-04-30T01:18:57.890Z,70.20
2023-04-30T01:21:26.462Z,70.20
2023-04-30T01:24:25.448Z,70.20
2023-04-30T01:27:08.525Z,70.10
2023-04-30T01:29:38.786Z,70.10
2023-04-30T01:32:06.573Z,70.10
2023-04-30T01:34:34.315Z,70.00
2023-04-30T01:37:12.658Z,70.00
2023-04-30T01:40:02.079Z,70.00
2023-04-30T01:42:37.075Z,70.00
2023-04-30T01:45:22.235Z,70.00
2023-04-30T01:47:54.514Z,70.00
2023-04-30T01:50:29.836Z,70.00
2023-04-30T01:53:02.927Z,70.00
2023-04-30T01:55:38.203Z,70.10
2023-04-30T01:58:07.976Z,70.10
2023-04-30T02:00:37.041Z,70.00
2023-04-30T02:03:05.031Z,70.00
2023-04-30T02:05:32.891Z,70.00
2023-04-30T02:08:01.409Z,70.00
2023-04-30T02:10:30.555Z,70.10
2023-04-30T02:12:58.374Z,70.00
2023-04-30T02:15:27.331Z,70.00
2023-04-30T02:17:56.371Z,70.00
2023-04-30T02:20:24.211Z,70.10
2023-04-30T02:22:52.221Z,70.00
2023-04-30T02:25:20.025Z,70.00
2023-04-30T02:27:47.831Z,70.00
2023-04-30T02:30:15.605Z,70.10
2023-04-30T02:32:43.311Z,70.00
2023-04-30T02:35:12.431Z,70.10
2023-04-30T02:37:40.148Z,70.10
2023-04-30T02:40:09.310Z,70.00
2023-04-30T02:42:36.999Z,70.10
2023-04-30T02:45:05.194Z,70.10
2023-04-30T02:47:32.940Z,70.10
2023-04-30T02:50:01.048Z,70.10
2023-04-30T02:52:30.082Z,70.10
2023-04-30T02:54:57.787Z,70.00
2023-04-30T02:57:26.308Z,70.10
2023-04-30T02:59:54.218Z,70.10
2023-04-30T03:02:23.467Z,70.00
2023-04-30T03:04:52.128Z,70.10
2023-04-30T03:07:19.835Z,70.10
2023-04-30T03:09:48.858Z,70.10
2023-04-30T03:12:16.621Z,70.00
2023-04-30T03:14:44.302Z,70.00
2023-04-30T03:17:11.987Z,70.10
2023-04-30T03:19:39.685Z,70.10
2023-04-30T03:22:07.575Z,70.10
2023-04-30T03:24:35.459Z,70.10
2023-04-30T03:27:04.839Z,70.10
2023-04-30T03:29:32.562Z,70.10
2023-04-30T03:32:00.337Z,70.10
2023-04-30T03:34:28.022Z,70.10
2023-04-30T03:36:55.743Z,70.10
2023-04-30T03:39:23.417Z,70.10
2023-04-30T03:41:51.203Z,70.10
2023-04-30T03:44:20.309Z,70.10
2023-04-30T03:46:48.031Z,70.10
2023-04-30T03:49:15.789Z,70.10
2023-04-30T03:51:43.942Z,70.10
2023-04-30T03:54:11.675Z,70.10
2023-04-30T03:56:40.983Z,70.00
2023-04-30T03:59:09.554Z,70.10
2023-04-30T04:01:38.972Z,70.10
2023-04-30T04:04:06.792Z,70.10
2023-04-30T04:06:34.654Z,70.10
2023-04-30T04:09:03.469Z,70.00
2023-04-30T04:11:31.179Z,70.00
2023-04-30T04:13:58.931Z,70.10
2023-04-30T04:16:26.731Z,70.00
2023-04-30T04:18:56.100Z,70.00
2023-04-30T04:21:24.230Z,70.00
2023-04-30T04:23:52.154Z,70.00
2023-04-30T04:26:21.518Z,70.00
2023-04-30T04:28:49.337Z,70.00
2023-04-30T04:31:17.074Z,70.00
2023-04-30T04:33:45.564Z,70.00
2023-04-30T04:36:14.634Z,69.90
2023-04-30T04:38:42.307Z,69.90
2023-04-30T04:41:10.025Z,69.90
2023-04-30T04:43:38.428Z,69.90
2023-04-30T04:46:06.484Z,69.80
2023-04-30T04:48:34.210Z,69.80
2023-04-30T04:51:02.008Z,69.80
2023-04-30T04:53:32.947Z,69.80
2023-04-30T04:56:02.492Z,69.70
2023-04-30T04:58:30.223Z,69.70
2023-04-30T05:00:59.899Z,69.60
2023-04-30T05:03:28.241Z,69.70
2023-04-30T05:05:56.469Z,69.60
2023-04-30T05:08:24.706Z,69.50
2023-04-30T05:10:53.710Z,69.60
2023-04-30T05:13:21.499Z,69.60
2023-04-30T05:15:54.205Z,69.60
2023-04-30T05:18:22.003Z,69.40
2023-04-30T05:20:49.849Z,69.50
2023-04-30T05:23:17.604Z,69.50
2023-04-30T05:25:45.452Z,69.50
2023-04-30T05:28:14.472Z,69.40
2023-04-30T05:30:42.134Z,69.40
2023-04-30T05:33:09.870Z,69.40
2023-04-30T05:35:37.634Z,69.40
2023-04-30T05:38:05.472Z,69.30
2023-04-30T05:40:33.171Z,69.40
2023-04-30T05:43:00.927Z,69.40
2023-04-30T05:45:29.948Z,69.30
2023-04-30T05:47:57.684Z,69.30
2023-04-30T05:50:25.402Z,69.30
2023-04-30T05:52:53.080Z,69.30
2023-04-30T05:55:20.767Z,69.30
2023-04-30T05:57:48.445Z,69.20
2023-04-30T06:00:16.823Z,69.20
2023-04-30T06:02:45.931Z,69.20
2023-04-30T06:05:16.141Z,69.20
2023-04-30T06:07:44.097Z,69.20
2023-04-30T06:10:12.489Z,69.20
2023-04-30T06:12:40.352Z,69.40
2023-04-30T06:15:08.784Z,69.50
2023-04-30T06:17:36.545Z,69.80
2023-04-30T06:20:07.095Z,69.90
2023-04-30T06:22:35.190Z,70.20
2023-04-30T06:25:03.521Z,70.30
2023-04-30T06:27:32.232Z,70.30
2023-04-30T06:30:00.905Z,70.40
2023-04-30T06:32:28.715Z,70.20
2023-04-30T06:34:56.472Z,70.10
2023-04-30T06:37:25.536Z,70.00
2023-04-30T06:39:53.722Z,69.90
2023-04-30T06:42:21.949Z,69.80
2023-04-30T06:44:49.961Z,69.60
2023-04-30T06:47:17.688Z,69.50
2023-04-30T06:49:45.374Z,69.40
2023-04-30T06:52:13.099Z,69.30
2023-04-30T06:54:43.082Z,69.30
2023-04-30T06:57:10.860Z,68.90
2023-04-30T06:59:39.293Z,68.90
2023-04-30T07:02:07.594Z,69.10
2023-04-30T07:04:35.362Z,69.10
2023-04-30T07:07:03.078Z,69.20
2023-04-30T07:09:31.035Z,69.30
2023-04-30T07:12:00.078Z,69.30
2023-04-30T07:14:27.780Z,69.30
2023-04-30T07:16:56.197Z,69.30
2023-04-30T07:19:26.826Z,69.40
2023-04-30T07:21:54.502Z,69.30
2023-04-30T07:24:22.206Z,69.30
2023-04-30T07:26:49.914Z,69.30
2023-04-30T07:29:18.954Z,69.30
2023-04-30T07:31:46.715Z,69.30
2023-04-30T07:34:14.663Z,69.30
2023-04-30T07:36:42.332Z,69.30
2023-04-30T07:39:11.621Z,69.30
2023-04-30T07:41:39.379Z,69.30
2023-04-30T07:44:07.530Z,69.30
2023-04-30T07:46:37.043Z,69.20
2023-04-30T07:49:04.972Z,69.20
2023-04-30T07:51:33.903Z,69.10
2023-04-30T07:54:01.688Z,69.20
2023-04-30T07:56:29.363Z,69.20
2023-04-30T07:58:57.259Z,69.20
2023-04-30T08:01:24.985Z,69.20
2023-04-30T08:03:54.217Z,69.20
2023-04-30T08:06:22.686Z,69.20
2023-04-30T08:08:50.656Z,69.10
2023-04-30T08:11:18.364Z,69.20
2023-04-30T08:13:46.523Z,69.20
2023-04-30T08:16:14.268Z,69.10
2023-04-30T08:18:44.699Z,69.10
2023-04-30T08:21:14.604Z,69.10
2023-04-30T08:23:42.360Z,69.00
2023-04-30T08:26:10.091Z,68.90
2023-04-30T08:28:37.787Z,69.20
2023-04-30T08:31:05.892Z,68.70
2023-04-30T08:33:33.587Z,68.60
2023-04-30T08:36:01.456Z,68.60
2023-04-30T08:38:30.712Z,68.60
2023-04-30T08:41:09.805Z,68.40
2023-04-30T08:43:37.598Z,68.40
2023-04-30T08:46:06.080Z,68.40
2023-04-30T08:48:34.410Z,68.30
2023-04-30T08:51:02.490Z,68.30
2023-04-30T08:53:35.474Z,68.30
2023-04-30T08:56:03.898Z,68.40
2023-04-30T08:58:31.640Z,68.30
2023-04-30T09:00:59.971Z,68.30
2023-04-30T09:03:28.782Z,68.30
2023-04-30T09:05:57.009Z,68.30
2023-04-30T09:08:44.294Z,68.30
2023-04-30T09:11:32.963Z,68.40
2023-04-30T09:14:02.064Z,68.40
2023-04-30T09:16:33.046Z,68.60
2023-04-30T09:19:00.988Z,68.40
2023-04-30T09:21:36.927Z,68.30
2023-04-30T09:24:07.025Z,68.40
2023-04-30T09:26:36.092Z,68.40
2023-04-30T09:29:07.824Z,68.40
2023-04-30T09:31:36.184Z,68.50
2023-04-30T09:34:04.258Z,68.40
2023-04-30T09:36:32.401Z,68.40
2023-04-30T09:39:10.818Z,68.40
2023-04-30T09:41:39.767Z,68.60
2023-04-30T09:44:07.571Z,68.60
2023-04-30T09:46:37.252Z,68.60
2023-04-30T09:49:07.187Z,68.60
2023-04-30T09:51:35.580Z,68.60
2023-04-30T09:54:05.190Z,68.70
2023-04-30T09:56:37.010Z,68.70
2023-04-30T09:59:08.015Z,68.70
2023-04-30T10:01:39.118Z,68.70
2023-04-30T10:04:08.826Z,68.70
2023-04-30T10:06:37.428Z,69.60
2023-04-30T10:09:07.843Z,68.70
2023-04-30T10:11:38.574Z,68.50
2023-04-30T10:14:11.229Z,68.30
2023-04-30T10:16:47.732Z,68.20
2023-04-30T10:19:19.685Z,68.00
2023-04-30T10:21:48.103Z,67.80
2023-04-30T10:24:19.371Z,67.50
2023-04-30T10:26:49.547Z,67.40
2023-04-30T10:29:18.337Z,67.40
2023-04-30T10:31:48.167Z,67.30
2023-04-30T10:34:23.581Z,67.30
2023-04-30T10:36:55.932Z,67.30
2023-04-30T10:39:27.462Z,67.30
2023-04-30T10:42:03.789Z,67.40
2023-04-30T10:44:34.906Z,67.50
2023-04-30T10:47:03.460Z,67.40
2023-04-30T10:49:31.542Z,67.40
2023-04-30T10:52:00.961Z,67.50
2023-04-30T10:54:30.030Z,67.50
2023-04-30T10:57:12.640Z,67.50
2023-04-30T10:59:45.005Z,67.50
2023-04-30T11:02:13.677Z,67.50
2023-04-30T11:05:09.644Z,67.50
2023-04-30T11:07:37.675Z,67.60
2023-04-30T11:10:09.450Z,67.60
2023-04-30T11:12:42.404Z,67.60
2023-04-30T11:15:16.263Z,67.60
2023-04-30T11:17:45.359Z,67.60
2023-04-30T11:20:14.516Z,67.60
2023-04-30T11:22:42.374Z,67.80
2023-04-30T11:25:12.864Z,67.80
2023-04-30T11:27:44.800Z,67.80
2023-04-30T11:30:15.097Z,67.70
2023-04-30T11:32:46.112Z,67.70
2023-04-30T11:35:14.973Z,67.70
2023-04-30T11:37:44.928Z,67.60
2023-04-30T11:40:14.433Z,67.70
2023-04-30T11:42:46.497Z,67.60
2023-04-30T11:45:17.478Z,67.60
2023-04-30T11:47:47.654Z,67.80
2023-04-30T11:50:17.918Z,67.80
2023-04-30T11:52:51.354Z,67.80
2023-04-30T11:55:21.288Z,67.90
2023-04-30T11:57:53.083Z,67.90
2023-04-30T12:00:22.432Z,67.80
2023-04-30T12:02:51.209Z,67.90
2023-04-30T12:05:21.485Z,67.90
2023-04-30T12:07:50.570Z,67.90
2023-04-30T12:10:20.459Z,68.00
2023-04-30T12:12:52.815Z,68.10
2023-04-30T12:15:23.180Z,68.10
2023-04-30T12:17:50.892Z,68.10
2023-04-30T12:20:18.686Z,68.00
2023-04-30T12:22:46.796Z,67.80
2023-04-30T12:25:16.063Z,67.60
2023-04-30T12:27:46.128Z,67.30
2023-04-30T12:30:16.011Z,67.00
2023-04-30T12:32:45.360Z,66.90
2023-04-30T12:35:16.346Z,66.80
2023-04-30T12:37:45.529Z,66.90
2023-04-30T12:40:14.869Z,66.80
2023-04-30T12:42:43.582Z,66.80
2023-04-30T12:45:12.293Z,67.00
2023-04-30T12:47:42.316Z,67.00
2023-04-30T12:50:12.650Z,67.20
2023-04-30T12:52:41.309Z,67.30
2023-04-30T12:55:19.064Z,67.30
2023-04-30T12:58:11.772Z,67.30
2023-04-30T13:00:47.538Z,67.40
2023-04-30T13:03:18.201Z,67.40
2023-04-30T13:05:49.416Z,68.20
2023-04-30T13:08:17.973Z,67.40
2023-04-30T13:10:46.504Z,67.50
2023-04-30T13:13:15.479Z,67.50
2023-04-30T13:15:44.249Z,67.50
2023-04-30T13:18:12.319Z,67.60
2023-04-30T13:20:41.346Z,67.40
2023-04-30T13:23:09.020Z,67.30
2023-04-30T13:25:37.302Z,67.30
2023-04-30T13:28:05.491Z,67.20
2023-04-30T13:30:34.082Z,67.20
2023-04-30T13:33:01.822Z,67.10
2023-04-30T13:35:29.949Z,67.20
2023-04-30T13:38:00.357Z,67.20
2023-04-30T13:40:28.421Z,67.20
2023-04-30T13:42:56.175Z,67.30
2023-04-30T13:45:23.905Z,67.30
2023-04-30T13:47:51.659Z,67.40
2023-04-30T13:50:19.418Z,67.40
2023-04-30T13:52:47.108Z,67.50
2023-04-30T13:55:16.297Z,67.50
2023-04-30T13:57:44.009Z,67.40
2023-04-30T14:00:12.929Z,67.30
2023-04-30T14:02:40.886Z,67.50
2023-04-30T14:05:09.469Z,67.50
2023-04-30T14:07:37.728Z,67.50
2023-04-30T14:10:06.304Z,67.60
2023-04-30T14:12:35.359Z,67.50
2023-04-30T14:15:03.508Z,67.50
2023-04-30T14:17:31.366Z,67.50
2023-04-30T14:19:59.114Z,67.40
2023-04-30T14:22:26.895Z,67.40
2023-04-30T14:24:54.902Z,67.20
2023-04-30T14:27:23.310Z,66.90
2023-04-30T14:29:52.353Z,66.70
2023-04-30T14:32:20.248Z,66.50
2023-04-30T14:34:48.127Z,66.20
2023-04-30T14:37:16.771Z,65.90
2023-04-30T14:39:44.757Z,65.40
2023-04-30T14:42:12.678Z,64.80
2023-04-30T14:44:41.270Z,64.40
2023-04-30T14:47:10.451Z,64.10
2023-04-30T14:49:38.241Z,63.90
2023-04-30T14:52:06.171Z,63.70
2023-04-30T14:54:33.915Z,63.50
2023-04-30T14:57:02.974Z,63.30
2023-04-30T14:59:31.407Z,63.20
2023-04-30T15:01:59.320Z,63.00
2023-04-30T15:04:28.383Z,62.70
2023-04-30T15:06:56.143Z,62.50
2023-04-30T15:09:23.886Z,62.20
2023-04-30T15:11:51.644Z,62.00
2023-04-30T15:14:19.349Z,61.80
2023-04-30T15:16:47.427Z,61.60
2023-04-30T15:19:15.218Z,61.40
2023-04-30T15:21:45.393Z,61.30
2023-04-30T15:24:15.923Z,61.10
2023-04-30T15:26:43.608Z,60.90
2023-04-30T15:29:12.000Z,60.90
2023-04-30T15:31:39.780Z,60.70
2023-04-30T15:34:07.500Z,60.60
2023-04-30T15:36:35.199Z,60.50
2023-04-30T15:39:05.185Z,60.40
2023-04-30T15:41:32.859Z,60.40
2023-04-30T15:44:00.536Z,60.40
2023-04-30T15:46:28.768Z,60.30
2023-04-30T15:48:56.867Z,60.30
2023-04-30T15:51:24.565Z,60.30
2023-04-30T15:53:52.252Z,60.30
2023-04-30T15:56:25.562Z,60.20
2023-04-30T15:58:53.737Z,60.20
2023-04-30T16:01:23.112Z,60.20
2023-04-30T16:03:50.960Z,60.20
2023-04-30T16:06:19.352Z,60.10
2023-04-30T16:08:49.791Z,60.00
2023-04-30T16:11:17.661Z,60.00
2023-04-30T16:13:47.323Z,60.10
2023-04-30T16:16:16.384Z,60.20
2023-04-30T16:18:44.090Z,60.20
2023-04-30T16:21:12.666Z,60.20
2023-04-30T16:23:40.361Z,60.10
2023-04-30T16:26:08.063Z,60.10
2023-04-30T16:28:35.873Z,60.00
2023-04-30T16:31:04.990Z,59.90
2023-04-30T16:33:32.699Z,59.80
2023-04-30T16:36:00.554Z,59.70
2023-04-30T16:38:28.271Z,59.70
2023-04-30T16:40:56.515Z,59.70
2023-04-30T16:43:24.268Z,59.80
2023-04-30T16:45:51.976Z,59.90
2023-04-30T16:48:21.134Z,60.00
2023-04-30T16:50:48.856Z,60.10
2023-04-30T16:53:16.552Z,60.10
2023-04-30T16:55:44.823Z,60.20
2023-04-30T16:58:12.540Z,60.50
2023-04-30T17:00:40.255Z,60.60
2023-04-30T17:03:08.363Z,60.80
2023-04-30T17:05:37.754Z,61.00
2023-04-30T17:08:05.648Z,61.10
2023-04-30T17:10:33.357Z,61.20
2023-04-30T17:13:03.936Z,61.40
2023-04-30T17:15:31.740Z,61.50
2023-04-30T17:17:59.488Z,61.50
2023-04-30T17:20:27.300Z,61.50
2023-04-30T17:22:56.770Z,61.70
2023-04-30T17:25:24.802Z,61.80
2023-04-30T17:27:52.468Z,61.80
2023-04-30T17:30:20.994Z,61.90
2023-04-30T17:32:48.728Z,62.10
2023-04-30T17:35:16.983Z,62.10
2023-04-30T17:37:44.653Z,62.10
2023-04-30T17:40:13.961Z,62.20
2023-04-30T17:42:41.684Z,62.30
2023-04-30T17:45:10.040Z,62.50
2023-04-30T17:47:37.839Z,62.60
2023-04-30T17:50:08.343Z,62.60
2023-04-30T17:52:38.578Z,62.60
2023-04-30T17:55:08.188Z,62.70
2023-04-30T17:57:37.772Z,63.60
2023-04-30T18:00:06.994Z,62.90
2023-04-30T18:02:44.286Z,63.00
2023-04-30T18:05:12.457Z,63.10
2023-04-30T18:07:40.175Z,63.20
2023-04-30T18:10:09.154Z,63.30
2023-04-30T18:12:38.269Z,63.40
2023-04-30T18:15:08.334Z,63.50
2023-04-30T18:17:37.242Z,63.60
2023-04-30T18:20:07.868Z,63.70
2023-04-30T18:22:41.102Z,63.80
2023-04-30T18:25:10.124Z,63.80
2023-04-30T18:27:39.211Z,63.90
2023-04-30T18:30:08.698Z,64.00
2023-04-30T18:32:37.121Z,64.10
2023-04-30T18:35:05.498Z,64.20
2023-04-30T18:37:33.193Z,64.30
2023-04-30T18:40:01.186Z,64.40
2023-04-30T18:42:29.951Z,64.50
2023-04-30T18:44:58.974Z,64.40
2023-04-30T18:47:26.655Z,64.50
2023-04-30T18:49:54.587Z,64.60
2023-04-30T18:52:22.736Z,64.70
2023-04-30T18:54:50.870Z,64.80
2023-04-30T18:57:18.603Z,64.80
2023-04-30T18:59:46.471Z,64.90
2023-04-30T19:02:15.541Z,64.90
2023-04-30T19:04:43.299Z,64.90
2023-04-30T19:07:11.539Z,65.00
2023-04-30T19:09:39.246Z,65.10
2023-04-30T19:12:07.224Z,65.10
2023-04-30T19:14:34.906Z,65.10
2023-04-30T19:17:02.685Z,65.10
2023-04-30T19:19:31.757Z,65.20
2023-04-30T19:21:59.508Z,65.20
2023-04-30T19:24:27.365Z,65.30
2023-04-30T19:26:55.237Z,65.30
2023-04-30T19:29:24.438Z,65.40
2023-04-30T19:31:52.243Z,65.50
2023-04-30T19:34:19.971Z,65.50
2023-04-30T19:36:49.037Z,65.60
2023-04-30T19:39:16.730Z,65.60
2023-04-30T19:41:44.608Z,65.70
2023-04-30T19:44:12.294Z,65.70
2023-04-30T19:46:41.067Z,65.80
2023-04-30T19:49:09.100Z,65.80
2023-04-30T19:51:37.154Z,65.90
2023-04-30T19:54:07.376Z,65.90
2023-04-30T19:56:35.893Z,66.00
2023-04-30T19:59:03.577Z,66.00
2023-04-30T20:01:31.355Z,65.80
2023-04-30T20:03:59.233Z,65.80
2023-04-30T20:06:28.261Z,65.80
2023-04-30T20:08:58.505Z,65.80
2023-04-30T20:11:27.820Z,65.80
2023-04-30T20:13:56.181Z,65.90
2023-04-30T20:16:23.981Z,65.90
2023-04-30T20:18:51.672Z,65.90
2023-04-30T20:21:21.228Z,65.90
2023-04-30T20:23:48.901Z,65.90
2023-04-30T20:26:16.945Z,65.90
2023-04-30T20:28:45.949Z,65.90
2023-04-30T20:31:15.019Z,65.90
2023-04-30T20:33:43.268Z,65.90
2023-04-30T20:36:11.054Z,65.90
2023-04-30T20:38:39.784Z,66.00
2023-04-30T20:41:07.484Z,66.00
2023-04-30T20:43:35.146Z,66.00
2023-04-30T20:46:04.220Z,65.90
2023-04-30T20:48:31.912Z,66.00
2023-04-30T20:50:59.612Z,66.00
2023-04-30T20:53:27.281Z,66.00
2023-04-30T20:55:59.640Z,66.10
2023-04-30T20:58:27.905Z,66.10
2023-04-30T21:00:56.497Z,66.10
2023-04-30T21:03:25.738Z,66.10
2023-04-30T21:05:53.935Z,66.20
2023-04-30T21:08:21.610Z,66.20
2023-04-30T21:10:51.305Z,66.20
2023-04-30T21:13:19.072Z,66.20
2023-04-30T21:15:48.516Z,66.20
2023-04-30T21:18:16.530Z,66.20
2023-04-30T21:20:46.006Z,66.30
2023-04-30T21:23:14.507Z,66.30
2023-04-30T21:25:42.235Z,66.30
2023-04-30T21:28:09.904Z,66.30
2023-04-30T21:30:37.731Z,66.40
2023-04-30T21:33:05.445Z,66.40
2023-04-30T21:35:33.751Z,66.40
2023-04-30T21:38:02.942Z,66.40
2023-04-30T21:40:33.518Z,66.40
2023-04-30T21:43:01.628Z,66.40
2023-04-30T21:45:29.373Z,66.50
2023-04-30T21:47:57.110Z,66.50
2023-04-30T21:50:25.135Z,66.50
2023-04-30T21:52:52.886Z,66.60
2023-04-30T21:55:22.197Z,66.50
2023-04-30T21:57:51.499Z,66.50
2023-04-30T22:00:19.504Z,66.60
2023-04-30T22:02:50.691Z,66.60
2023-04-30T22:05:19.595Z,66.60
2023-04-30T22:07:47.599Z,66.60
2023-04-30T22:10:15.609Z,66.60
2023-04-30T22:12:47.418Z,66.50
2023-04-30T22:15:15.771Z,66.60
2023-04-30T22:17:43.643Z,66.50
2023-04-30T22:20:12.105Z,66.70
2023-04-30T22:22:39.840Z,66.60
2023-04-30T22:25:09.817Z,66.60
2023-04-30T22:27:37.725Z,66.60
2023-04-30T22:30:08.264Z,66.60
2023-04-30T22:32:36.047Z,66.60
2023-04-30T22:35:03.936Z,66.60
2023-04-30T22:37:31.702Z,66.60
2023-04-30T22:39:59.445Z,66.70
2023-04-30T22:42:27.288Z,66.70
2023-04-30T22:44:55.660Z,66.60
2023-04-30T22:47:24.925Z,66.70
2023-04-30T22:49:52.646Z,66.70
2023-04-30T22:52:20.366Z,66.70
2023-04-30T22:54:48.188Z,66.70
2023-04-30T22:57:16.371Z,66.70
2023-04-30T22:59:44.238Z,66.70
2023-04-30T23:02:11.991Z,66.70
2023-04-30T23:04:41.020Z,66.70
2023-04-30T23:07:08.954Z,66.70
2023-04-30T23:09:36.628Z,66.70
2023-04-30T23:12:04.763Z,66.70
2023-04-30T23:14:32.468Z,66.70
2023-04-30T23:17:00.618Z,66.70
2023-04-30T23:19:28.430Z,66.70
2023-04-30T23:21:57.779Z,66.80
2023-04-30T23:24:25.463Z,66.80
2023-04-30T23:26:53.329Z,67.60
2023-04-30T23:29:21.282Z,66.80
2023-04-30T23:31:49.192Z,66.80
2023-04-30T23:34:16.942Z,66.80
2023-04-30T23:36:44.632Z,66.80
2023-04-30T23:39:13.626Z,66.80
2023-04-30T23:41:41.368Z,66.90
2023-04-30T23:44:09.088Z,66.80
2023-04-30T23:46:36.824Z,66.90
2023-04-30T23:49:04.659Z,66.90
2023-04-30T23:51:33.296Z,66.90
2023-04-30T23:54:01.010Z,66.90
2023-04-30T23:56:30.239Z,66.90
2023-04-30T23:58:57.916Z,66.90
